Buena Reina — 9V9940 — position and weather

sailwx.info

Track history (hours):
 
Tides and Currents Weather Stations Pressure Air Temp Water Temp Dewpoint Dewpoint Depression Visibility Wind Speed Wind Dir Waves Ship Positions

Buena Reina

Last reported at 2018-Jun-13 10:05 UTC. Time now 2018-Jun-24 01:31 UTC.
Position N 31°05' E 122°33'.
Warning: this ship's position is 10 days out of date.

Length 96 m; draft 4.6 m.

Type: Tanker. MMSI: 566712000.

Date/timePositionNaut miles runAvg speedWind from/ knotsBaromVisibWave heightAir tempDewpointWater temp
2018-Jun-13 10:05N 31°05' E 122°33'211.3
2018-Jun-13 09:54N 31°05' E 122°31'9 9.6
2018-Jun-13 08:56N 31°04' E 122°20'511.6
2018-Jun-13 08:29N 31°02' E 122°14'612.2
2018-Jun-13 08:00N 31°03' E 122°07'714.2
2018-Jun-13 07:30N 31°06' E 121°59'6 0.2
2018-Jun-11 23:29N 31°09' E 121°54'713.5
2018-Jun-11 23:00N 31°05' E 122°00'1113.1
2018-Jun-11 22:10N 31°03' E 122°13'411.1
2018-Jun-11 21:46N 31°03' E 122°18'2 8.8
2018-Jun-11 21:30N 31°02' E 122°21'5 9.8
2018-Jun-11 21:00N 31°01' E 122°26'510.1
2018-Jun-11 20:30N 31°00' E 122°32'2 3.4
2018-Jun-11 19:46N 31°01' E 122°35'0 0.0
2018-Jun-11 15:37N 31°01' E 122°35'0 0.0
2018-Jun-11 15:07N 31°01' E 122°35'0 0.0
2018-Jun-11 14:55N 31°01' E 122°35'0 0.1
2018-Jun-11 11:56N 31°01' E 122°35'  
2018-Jun-06 08:29N 31°28' E 121°27'3 5.2
2018-Jun-06 08:00N 31°30' E 121°25'612.2
2018-Jun-06 07:31N 31°33' E 121°20'713.6
2018-Jun-06 07:00N 31°38' E 121°14'814.6
2018-Jun-06 06:29N 31°43' E 121°07'2 0.1
2018-Jun-05 09:03N 31°42' E 121°09'111.5
2018-Jun-05 09:00N 31°41' E 121°10'611.2
2018-Jun-05 08:30N 31°38' E 121°15'611.8
2018-Jun-05 08:00N 31°33' E 121°20'611.8
2018-Jun-05 07:30N 31°30' E 121°25'3310.7
2018-Jun-05 04:25N 31°08' E 121°54'511.3
2018-Jun-05 04:00N 31°06' E 121°59'6 8.9
2018-Jun-05 03:23N 31°04' E 122°05'  
Track history (hours):
 
Tides and Currents Weather Stations Pressure Air Temp Water Temp Dewpoint Dewpoint Depression Visibility Wind Speed Wind Dir Waves Ship Positions

Buena Reina

Last reported at 2018-Jun-13 10:05 UTC. Time now 2018-Jun-24 01:31 UTC.
Position N 31°05' E 122°33'.
Warning: this ship's position is 10 days out of date.

Length 96 m; draft 4.6 m.

Type: Tanker. MMSI: 566712000.

Date/timePositionNaut miles runAvg speedWind from/ knotsBaromVisibWave heightAir tempDewpointWater temp
2018-Jun-13 10:05N 31°05' E 122°33'211.3
2018-Jun-13 09:54N 31°05' E 122°31'9 9.6
2018-Jun-13 08:56N 31°04' E 122°20'511.6
2018-Jun-13 08:29N 31°02' E 122°14'612.2
2018-Jun-13 08:00N 31°03' E 122°07'714.2
2018-Jun-13 07:30N 31°06' E 121°59'6 0.2
2018-Jun-11 23:29N 31°09' E 121°54'713.5
2018-Jun-11 23:00N 31°05' E 122°00'1113.1
2018-Jun-11 22:10N 31°03' E 122°13'411.1
2018-Jun-11 21:46N 31°03' E 122°18'2 8.8
2018-Jun-11 21:30N 31°02' E 122°21'5 9.8
2018-Jun-11 21:00N 31°01' E 122°26'510.1
2018-Jun-11 20:30N 31°00' E 122°32'2 3.4
2018-Jun-11 19:46N 31°01' E 122°35'0 0.0
2018-Jun-11 15:37N 31°01' E 122°35'0 0.0
2018-Jun-11 15:07N 31°01' E 122°35'0 0.0
2018-Jun-11 14:55N 31°01' E 122°35'0 0.1
2018-Jun-11 11:56N 31°01' E 122°35'  
2018-Jun-06 08:29N 31°28' E 121°27'3 5.2
2018-Jun-06 08:00N 31°30' E 121°25'612.2
2018-Jun-06 07:31N 31°33' E 121°20'713.6
2018-Jun-06 07:00N 31°38' E 121°14'814.6
2018-Jun-06 06:29N 31°43' E 121°07'2 0.1
2018-Jun-05 09:03N 31°42' E 121°09'111.5
2018-Jun-05 09:00N 31°41' E 121°10'611.2
2018-Jun-05 08:30N 31°38' E 121°15'611.8
2018-Jun-05 08:00N 31°33' E 121°20'611.8
2018-Jun-05 07:30N 31°30' E 121°25'3310.7
2018-Jun-05 04:25N 31°08' E 121°54'511.3
2018-Jun-05 04:00N 31°06' E 121°59'6 8.9
2018-Jun-05 03:23N 31°04' E 122°05'  

Dump ship's entire track history